createdAt,value
2018-01-15T00:01:45.379Z,-1.69
2018-01-15T00:04:12.958Z,-1.70
2018-01-15T00:06:40.538Z,-1.80
2018-01-15T00:09:08.152Z,-1.79
2018-01-15T00:11:35.734Z,-1.76
2018-01-15T00:14:03.365Z,-1.71
2018-01-15T00:16:30.995Z,-1.82
2018-01-15T00:18:58.604Z,-1.81
2018-01-15T00:21:26.196Z,-1.86
2018-01-15T00:23:53.840Z,-1.85
2018-01-15T00:26:21.416Z,-1.77
2018-01-15T00:28:48.997Z,-1.77
2018-01-15T00:31:16.643Z,-1.70
2018-01-15T00:33:44.269Z,-1.73
2018-01-15T00:36:11.859Z,-1.77
2018-01-15T00:38:39.454Z,-1.87
2018-01-15T00:41:07.051Z,-1.76
2018-01-15T00:43:34.650Z,-1.82
2018-01-15T00:46:02.374Z,-1.82
2018-01-15T00:48:30.258Z,-1.85
2018-01-15T00:50:57.850Z,-1.86
2018-01-15T00:53:25.435Z,-2.00
2018-01-15T00:55:53.007Z,-1.88
2018-01-15T00:58:20.562Z,-1.88
2018-01-15T01:00:48.188Z,-1.99
2018-01-15T01:03:15.855Z,-2.08
2018-01-15T01:05:43.444Z,-1.98
2018-01-15T01:08:11.058Z,-1.99
2018-01-15T01:10:38.633Z,-2.05
2018-01-15T01:13:06.346Z,-2.00
2018-01-15T01:15:33.951Z,-2.01
2018-01-15T01:18:01.506Z,-1.96
2018-01-15T01:20:29.075Z,-1.92
2018-01-15T01:22:56.679Z,-1.86
2018-01-15T01:25:24.267Z,-1.83
2018-01-15T01:27:51.903Z,-1.94
2018-01-15T01:30:19.701Z,-1.76
2018-01-15T01:32:47.273Z,-1.76
2018-01-15T01:35:14.836Z,-1.67
2018-01-15T01:37:42.589Z,-1.62
2018-01-15T01:40:10.181Z,-1.74
2018-01-15T01:42:37.768Z,-1.63
2018-01-15T01:45:05.484Z,-1.66
2018-01-15T01:47:33.065Z,-1.74
2018-01-15T01:50:00.650Z,-1.71
2018-01-15T01:52:28.271Z,-1.71
2018-01-15T01:54:55.931Z,-1.80
2018-01-15T01:57:23.517Z,-1.89
2018-01-15T01:59:51.149Z,-1.97
2018-01-15T02:02:18.865Z,-1.97
2018-01-15T02:04:46.457Z,-1.95
2018-01-15T02:07:14.087Z,-1.90
2018-01-15T02:09:41.671Z,-1.91
2018-01-15T02:12:09.243Z,-2.04
2018-01-15T02:14:36.855Z,-1.98
2018-01-15T02:17:04.427Z,-2.04
2018-01-15T02:19:32.012Z,-2.06
2018-01-15T02:21:59.636Z,-2.09
2018-01-15T02:24:27.223Z,-2.01
2018-01-15T02:26:54.810Z,-2.05
2018-01-15T02:29:22.431Z,-2.07
2018-01-15T02:31:50.002Z,-2.08
2018-01-15T02:34:17.567Z,-1.94
2018-01-15T02:36:45.176Z,-1.94
2018-01-15T02:39:12.757Z,-1.93
2018-01-15T02:41:40.349Z,-1.88
2018-01-15T02:44:07.974Z,-1.86
2018-01-15T02:46:35.543Z,-1.81
2018-01-15T02:49:03.145Z,-1.75
2018-01-15T02:51:30.774Z,-1.71
2018-01-15T02:53:58.356Z,-1.68
2018-01-15T02:56:25.924Z,-1.79
2018-01-15T02:58:53.545Z,-1.75
2018-01-15T03:01:21.109Z,-1.87
2018-01-15T03:03:48.682Z,-1.86
2018-01-15T03:06:16.289Z,-1.81
2018-01-15T03:08:43.868Z,-1.86
2018-01-15T03:11:11.443Z,-1.96
2018-01-15T03:13:39.040Z,-2.00
2018-01-15T03:16:06.607Z,-1.97
2018-01-15T03:18:34.189Z,-2.00
2018-01-15T03:21:01.828Z,-2.02
2018-01-15T03:23:29.423Z,-2.12
2018-01-15T03:25:56.980Z,-2.07
2018-01-15T03:28:24.604Z,-2.09
2018-01-15T03:30:52.200Z,-2.11
2018-01-15T03:33:19.771Z,-2.27
2018-01-15T03:35:47.380Z,-2.10
2018-01-15T03:38:14.985Z,-2.04
2018-01-15T03:40:42.558Z,-1.99
2018-01-15T03:43:10.188Z,-2.01
2018-01-15T03:45:37.777Z,-1.99
2018-01-15T03:48:05.377Z,-1.91
2018-01-15T03:50:32.991Z,-1.93
2018-01-15T03:53:00.555Z,-1.85
2018-01-15T03:55:28.123Z,-1.78
2018-01-15T03:57:55.730Z,-1.76
2018-01-15T04:00:23.324Z,-1.72
2018-01-15T04:02:50.894Z,-1.65
2018-01-15T04:05:18.543Z,-1.58
2018-01-15T04:07:46.115Z,-1.58
2018-01-15T04:10:13.697Z,-1.55
2018-01-15T04:12:41.321Z,-1.52
2018-01-15T04:15:08.928Z,-1.47
2018-01-15T04:17:36.490Z,-1.48
2018-01-15T04:20:04.105Z,-1.51
2018-01-15T04:22:31.662Z,-1.49
2018-01-15T04:24:59.243Z,-1.43
2018-01-15T04:27:26.856Z,-1.44
2018-01-15T04:29:54.443Z,-1.41
2018-01-15T04:32:22.037Z,-1.40
2018-01-15T04:34:49.671Z,-1.40
2018-01-15T04:37:17.303Z,-1.40
2018-01-15T04:39:44.875Z,-1.42
2018-01-15T04:42:12.554Z,-1.44
2018-01-15T04:44:40.136Z,-1.48
2018-01-15T04:47:07.738Z,-1.69
2018-01-15T04:49:35.377Z,-1.68
2018-01-15T04:52:02.961Z,-1.64
2018-01-15T04:54:30.613Z,-1.59
2018-01-15T04:56:58.232Z,-1.56
2018-01-15T04:59:25.799Z,-1.56
2018-01-15T05:01:53.386Z,-1.58
2018-01-15T05:04:21.003Z,-1.54
2018-01-15T05:06:48.573Z,-1.57
2018-01-15T05:09:16.147Z,-1.66
2018-01-15T05:11:43.761Z,-1.71
2018-01-15T05:14:11.339Z,-1.69
2018-01-15T05:16:38.948Z,-1.72
2018-01-15T05:19:06.574Z,-1.77
2018-01-15T05:21:34.142Z,-1.78
2018-01-15T05:24:01.711Z,-1.82
2018-01-15T05:26:29.312Z,-1.89
2018-01-15T05:28:56.888Z,-1.93
2018-01-15T05:31:24.675Z,-1.89
2018-01-15T05:33:52.277Z,-1.92
2018-01-15T05:36:19.998Z,-2.11
2018-01-15T05:38:47.563Z,-2.14
2018-01-15T05:41:15.162Z,-2.03
2018-01-15T05:43:42.742Z,-2.15
2018-01-15T05:46:10.314Z,-2.03
2018-01-15T05:48:37.924Z,-2.08
2018-01-15T05:51:05.513Z,-2.15
2018-01-15T05:53:33.096Z,-2.15
2018-01-15T05:56:00.724Z,-2.41
2018-01-15T05:58:28.294Z,-2.50
2018-01-15T06:00:55.871Z,-2.57
2018-01-15T06:03:23.483Z,-2.61
2018-01-15T06:05:51.073Z,-2.71
2018-01-15T06:08:18.657Z,-2.72
2018-01-15T06:10:46.281Z,-2.67
2018-01-15T06:13:13.908Z,-2.57
2018-01-15T06:15:41.519Z,-2.61
2018-01-15T06:18:09.212Z,-2.59
2018-01-15T06:20:36.805Z,-2.48
2018-01-15T06:23:04.400Z,-2.39
2018-01-15T06:25:32.019Z,-2.33
2018-01-15T06:27:59.676Z,-2.22
2018-01-15T06:30:27.267Z,-2.27
2018-01-15T06:32:54.889Z,-2.24
2018-01-15T06:35:22.472Z,-2.19
2018-01-15T06:37:50.051Z,-2.15
2018-01-15T06:40:17.672Z,-2.20
2018-01-15T06:42:45.295Z,-2.17
2018-01-15T06:45:12.867Z,-2.04
2018-01-15T06:47:40.491Z,-2.03
2018-01-15T06:50:08.051Z,-1.69
2018-01-15T06:52:35.623Z,-1.66
2018-01-15T06:55:03.240Z,-1.25
2018-01-15T06:57:30.834Z,-1.16
2018-01-15T06:59:58.410Z,-1.25
2018-01-15T07:02:26.011Z,-0.91
2018-01-15T07:04:53.645Z,-0.69
2018-01-15T07:07:21.286Z,-0.76
2018-01-15T07:09:48.891Z,-1.07
2018-01-15T07:12:16.477Z,-1.38
2018-01-15T07:14:44.055Z,-1.42
2018-01-15T07:17:11.692Z,-1.49
2018-01-15T07:19:39.252Z,-1.77
2018-01-15T07:22:06.808Z,-1.71
2018-01-15T07:24:34.411Z,-1.67
2018-01-15T07:27:01.971Z,-1.70
2018-01-15T07:29:29.535Z,-1.65
2018-01-15T07:31:57.147Z,-1.75
2018-01-15T07:34:24.731Z,-1.57
2018-01-15T07:36:52.366Z,-1.42
2018-01-15T07:39:19.970Z,-1.36
2018-01-15T07:41:47.544Z,-1.32
2018-01-15T07:44:15.102Z,-1.45
2018-01-15T07:46:42.714Z,-1.33
2018-01-15T07:49:10.308Z,-1.41
2018-01-15T07:51:37.893Z,-1.38
2018-01-15T07:54:05.517Z,-1.27
2018-01-15T07:56:33.089Z,-1.32
2018-01-15T07:59:00.677Z,-1.31
2018-01-15T08:01:28.303Z,-1.32
2018-01-15T08:03:55.895Z,-1.24
2018-01-15T08:06:23.479Z,-1.08
2018-01-15T08:08:51.141Z,-1.11
2018-01-15T08:11:18.842Z,-1.05
2018-01-15T08:13:46.434Z,-1.05
2018-01-15T08:16:14.053Z,-0.81
2018-01-15T08:18:41.650Z,-0.66
2018-01-15T08:21:09.250Z,-0.61
2018-01-15T08:23:36.871Z,-0.68
2018-01-15T08:26:04.451Z,-0.94
2018-01-15T08:28:32.025Z,-1.20
2018-01-15T08:30:59.650Z,-1.32
2018-01-15T08:33:27.259Z,-1.48
2018-01-15T08:35:54.841Z,-1.38
2018-01-15T08:38:22.451Z,-1.28
2018-01-15T08:40:50.040Z,-1.24
2018-01-15T08:43:17.654Z,-1.19
2018-01-15T08:45:45.296Z,-1.27
2018-01-15T08:48:12.898Z,-1.04
2018-01-15T08:50:40.485Z,-0.79
2018-01-15T08:53:08.097Z,-1.33
2018-01-15T08:55:36.192Z,-0.96
2018-01-15T08:58:03.772Z,-0.78
2018-01-15T09:00:31.413Z,-0.67
2018-01-15T09:02:58.988Z,-0.51
2018-01-15T09:05:26.567Z,-0.34
2018-01-15T09:07:54.194Z,-0.51
2018-01-15T09:10:21.771Z,-0.62
2018-01-15T09:12:49.343Z,-1.08
2018-01-15T09:15:16.957Z,-1.16
2018-01-15T09:17:44.544Z,-1.19
2018-01-15T09:20:12.124Z,-1.12
2018-01-15T09:22:39.766Z,-1.13
2018-01-15T09:25:07.566Z,-1.13
2018-01-15T09:27:35.192Z,-1.32
2018-01-15T09:30:02.812Z,-1.63
2018-01-15T09:32:30.401Z,-1.66
2018-01-15T09:34:58.000Z,-1.45
2018-01-15T09:37:25.626Z,-1.41
2018-01-15T09:39:53.209Z,-1.48
2018-01-15T09:42:20.798Z,-1.35
2018-01-15T09:44:48.418Z,-1.68
2018-01-15T09:47:16.005Z,-1.78
2018-01-15T09:49:43.567Z,-1.76
2018-01-15T09:52:11.174Z,-1.55
2018-01-15T09:54:38.768Z,-1.32
2018-01-15T09:57:06.337Z,-1.32
2018-01-15T09:59:33.959Z,-1.45
2018-01-15T10:02:01.561Z,-1.42
2018-01-15T10:04:29.138Z,-1.55
2018-01-15T10:06:56.827Z,-1.32
2018-01-15T10:09:24.409Z,-1.23
2018-01-15T10:11:51.986Z,-0.98
2018-01-15T10:14:19.613Z,-1.19
2018-01-15T10:16:47.195Z,-0.99
2018-01-15T10:19:14.782Z,-1.08
2018-01-15T10:21:42.397Z,-1.27
2018-01-15T10:24:09.976Z,-1.08
2018-01-15T10:26:37.530Z,-1.13
2018-01-15T10:29:05.150Z,-1.15
2018-01-15T10:31:32.727Z,-0.99
2018-01-15T10:34:00.418Z,-1.13
2018-01-15T10:36:28.032Z,-1.30
2018-01-15T10:38:55.616Z,-1.22
2018-01-15T10:41:23.189Z,-1.46
2018-01-15T10:43:50.815Z,-1.62
2018-01-15T10:46:18.416Z,-1.59
2018-01-15T10:48:46.024Z,-1.50
2018-01-15T10:51:13.654Z,-1.54
2018-01-15T10:53:41.258Z,-1.41
2018-01-15T10:56:08.862Z,-1.35
2018-01-15T10:58:36.576Z,-1.30
2018-01-15T11:01:09.691Z,-1.31
2018-01-15T11:03:37.327Z,-1.39
2018-01-15T11:06:04.921Z,-1.63
2018-01-15T11:08:32.491Z,-1.69
2018-01-15T11:11:00.115Z,-1.81
2018-01-15T11:13:27.864Z,-1.63
2018-01-15T11:15:55.478Z,-1.53
2018-01-15T11:18:23.213Z,-1.33
2018-01-15T11:20:50.727Z,-1.23
2018-01-15T11:23:18.306Z,-1.22
2018-01-15T11:25:45.939Z,-1.01
2018-01-15T11:28:13.529Z,-0.71
2018-01-15T11:30:41.096Z,-0.58
2018-01-15T11:33:08.724Z,-0.85
2018-01-15T11:35:37.188Z,-1.04
2018-01-15T11:38:04.800Z,-1.24
2018-01-15T11:40:32.440Z,-1.29
2018-01-15T11:43:00.110Z,-1.24
2018-01-15T11:45:27.695Z,-1.05
2018-01-15T11:47:55.361Z,-0.98
2018-01-15T11:50:22.953Z,-0.96
2018-01-15T11:52:50.684Z,-1.18
2018-01-15T11:55:18.349Z,-1.08
2018-01-15T11:57:45.954Z,-1.06
2018-01-15T12:00:13.534Z,-1.29
2018-01-15T12:02:41.176Z,-0.99
2018-01-15T12:05:08.763Z,-0.85
2018-01-15T12:07:36.386Z,-0.81
2018-01-15T12:10:04.032Z,-0.82
2018-01-15T12:12:31.606Z,-0.67
2018-01-15T12:14:59.243Z,-0.80
2018-01-15T12:17:26.867Z,-1.12
2018-01-15T12:19:54.482Z,-1.11
2018-01-15T12:22:22.083Z,-0.99
2018-01-15T12:24:49.721Z,-0.94
2018-01-15T12:27:17.339Z,-0.94
2018-01-15T12:29:44.963Z,-0.94
2018-01-15T12:32:12.588Z,-1.13
2018-01-15T12:34:40.271Z,-1.25
2018-01-15T12:37:07.874Z,-1.18
2018-01-15T12:39:36.372Z,-0.98
2018-01-15T12:42:03.994Z,-1.02
2018-01-15T12:44:31.675Z,-1.02
2018-01-15T12:46:59.341Z,-1.15
2018-01-15T12:49:26.900Z,-0.94
2018-01-15T12:51:54.484Z,-0.80
2018-01-15T12:54:22.118Z,-0.73
2018-01-15T12:56:49.722Z,-0.84
2018-01-15T12:59:17.316Z,-0.71
2018-01-15T13:01:44.956Z,-1.07
2018-01-15T13:04:12.625Z,-1.24
2018-01-15T13:06:46.127Z,-1.15
2018-01-15T13:09:14.688Z,-0.93
2018-01-15T13:11:42.333Z,-0.90
2018-01-15T13:14:09.930Z,-0.88
2018-01-15T13:16:37.520Z,-0.77
2018-01-15T13:19:05.096Z,-0.72
2018-01-15T13:21:32.752Z,-0.68
2018-01-15T13:24:00.342Z,-0.43
2018-01-15T13:26:27.937Z,-0.49
2018-01-15T13:28:55.555Z,-0.99
2018-01-15T13:31:23.140Z,-1.11
2018-01-15T13:33:50.728Z,-0.75
2018-01-15T13:36:18.406Z,-0.46
2018-01-15T13:38:46.135Z,-0.60
2018-01-15T13:41:13.714Z,-0.90
2018-01-15T13:43:41.388Z,-1.32
2018-01-15T13:46:09.003Z,-1.24
2018-01-15T13:48:36.676Z,-1.17
2018-01-15T13:51:04.536Z,-0.98
2018-01-15T13:53:32.135Z,-0.93
2018-01-15T13:55:59.713Z,-1.26
2018-01-15T13:58:27.314Z,-1.20
2018-01-15T14:00:54.935Z,-1.06
2018-01-15T14:03:22.504Z,-1.04
2018-01-15T14:05:50.107Z,-0.96
2018-01-15T14:08:17.841Z,-1.09
2018-01-15T14:10:45.429Z,-1.27
2018-01-15T14:13:13.037Z,-1.27
2018-01-15T14:15:40.630Z,-1.36
2018-01-15T14:18:08.340Z,-1.46
2018-01-15T14:20:35.950Z,-1.45
2018-01-15T14:23:03.529Z,-1.37
2018-01-15T14:25:31.123Z,-1.43
2018-01-15T14:27:58.728Z,-1.52
2018-01-15T14:30:26.303Z,-1.66
2018-01-15T14:32:53.902Z,-1.74
2018-01-15T14:35:21.504Z,-1.80
2018-01-15T14:37:49.111Z,-1.77
2018-01-15T14:40:16.837Z,-1.79
2018-01-15T14:42:44.369Z,-2.09
2018-01-15T14:45:11.954Z,-2.27
2018-01-15T14:47:39.516Z,-2.33
2018-01-15T14:50:07.133Z,-2.24
2018-01-15T14:52:34.705Z,-2.25
2018-01-15T14:55:02.274Z,-2.30
2018-01-15T14:57:29.906Z,-2.33
2018-01-15T14:59:57.478Z,-2.28
2018-01-15T15:02:25.043Z,-2.36
2018-01-15T15:04:52.638Z,-2.36
2018-01-15T15:07:20.205Z,-2.40
2018-01-15T15:09:47.767Z,-2.34
2018-01-15T15:12:15.374Z,-2.35
2018-01-15T15:14:42.951Z,-2.24
2018-01-15T15:17:10.527Z,-2.19
2018-01-15T15:19:38.134Z,-2.13
2018-01-15T15:22:05.697Z,-2.20
2018-01-15T15:24:33.343Z,-2.24
2018-01-15T15:27:00.957Z,-2.24
2018-01-15T15:29:28.532Z,-2.25
2018-01-15T15:31:56.100Z,-2.30
2018-01-15T15:34:23.703Z,-2.32
2018-01-15T15:36:51.274Z,-2.35
2018-01-15T15:39:18.833Z,-2.25
2018-01-15T15:41:46.445Z,-2.16
2018-01-15T15:44:14.027Z,-2.12
2018-01-15T15:46:41.594Z,-2.12
2018-01-15T15:49:09.203Z,-2.20
2018-01-15T15:51:36.773Z,-2.32
2018-01-15T15:54:04.325Z,-2.30
2018-01-15T15:56:31.925Z,-2.36
2018-01-15T15:58:59.487Z,-2.45
2018-01-15T16:01:27.077Z,-2.53
2018-01-15T16:03:54.709Z,-2.55
2018-01-15T16:06:22.277Z,-2.56
2018-01-15T16:08:49.868Z,-2.50
2018-01-15T16:11:17.490Z,-2.40
2018-01-15T16:13:45.071Z,-2.29
2018-01-15T16:16:12.669Z,-2.24
2018-01-15T16:18:40.331Z,-2.23
2018-01-15T16:21:07.913Z,-2.18
2018-01-15T16:23:35.498Z,-2.30
2018-01-15T16:26:03.150Z,-2.35
2018-01-15T16:28:30.750Z,-2.24
2018-01-15T16:30:58.337Z,-2.29
2018-01-15T16:33:25.984Z,-2.36
2018-01-15T16:35:53.580Z,-2.33
2018-01-15T16:38:21.166Z,-2.32
2018-01-15T16:40:48.805Z,-2.25
2018-01-15T16:43:16.403Z,-2.23
2018-01-15T16:45:44.039Z,-2.26
2018-01-15T16:48:11.703Z,-2.37
2018-01-15T16:50:39.281Z,-2.35
2018-01-15T16:53:06.865Z,-2.34
2018-01-15T16:55:34.518Z,-2.34
2018-01-15T16:58:02.145Z,-2.29
2018-01-15T17:00:29.729Z,-2.27
2018-01-15T17:02:57.353Z,-2.35
2018-01-15T17:05:24.948Z,-2.49
2018-01-15T17:07:52.536Z,-2.63
2018-01-15T17:10:20.179Z,-2.57
2018-01-15T17:12:47.757Z,-2.57
2018-01-15T17:15:15.345Z,-2.55
2018-01-15T17:17:42.980Z,-2.61
2018-01-15T17:20:10.621Z,-2.71
2018-01-15T17:22:38.208Z,-2.70
2018-01-15T17:25:05.838Z,-2.73
2018-01-15T17:27:33.496Z,-2.83
2018-01-15T17:30:01.077Z,-2.87
2018-01-15T17:32:28.702Z,-2.86
2018-01-15T17:34:56.274Z,-2.94
2018-01-15T17:37:23.866Z,-2.77
2018-01-15T17:39:51.671Z,-2.78
2018-01-15T17:42:19.255Z,-2.75
2018-01-15T17:44:46.824Z,-2.66
2018-01-15T17:47:14.480Z,-2.68
2018-01-15T17:49:42.087Z,-2.70
2018-01-15T17:52:09.667Z,-2.65
2018-01-15T17:54:37.292Z,-2.64
2018-01-15T17:57:04.877Z,-2.67
2018-01-15T17:59:32.460Z,-2.67
2018-01-15T18:02:00.223Z,-2.71
2018-01-15T18:04:27.878Z,-2.65
2018-01-15T18:06:55.470Z,-2.66
2018-01-15T18:09:23.095Z,-2.67
2018-01-15T18:11:50.658Z,-2.76
2018-01-15T18:14:18.241Z,-2.82
2018-01-15T18:16:45.881Z,-2.91
2018-01-15T18:19:13.651Z,-3.01
2018-01-15T18:21:41.321Z,-3.07
2018-01-15T18:24:08.919Z,-3.04
2018-01-15T18:26:36.503Z,-2.95
2018-01-15T18:29:04.082Z,-3.06
2018-01-15T18:31:31.958Z,-3.09
2018-01-15T18:33:59.527Z,-3.00
2018-01-15T18:36:27.283Z,-2.91
2018-01-15T18:38:54.930Z,-2.86
2018-01-15T18:41:22.614Z,-2.90
2018-01-15T18:43:50.364Z,-2.86
2018-01-15T18:46:18.142Z,-2.79
2018-01-15T18:48:45.787Z,-2.79
2018-01-15T18:51:13.451Z,-2.69
2018-01-15T18:53:41.104Z,-2.62
2018-01-15T18:56:08.691Z,-2.66
2018-01-15T18:58:36.274Z,-2.63
2018-01-15T19:01:04.102Z,-2.74
2018-01-15T19:03:31.772Z,-2.75
2018-01-15T19:05:59.442Z,-2.81
2018-01-15T19:08:27.303Z,-2.80
2018-01-15T19:10:54.951Z,-2.92
2018-01-15T19:13:22.612Z,-2.95
2018-01-15T19:15:50.273Z,-2.88
2018-01-15T19:18:17.943Z,-2.93
2018-01-15T19:20:45.616Z,-3.08
2018-01-15T19:23:13.269Z,-3.09
2018-01-15T19:25:40.850Z,-3.01
2018-01-15T19:28:08.463Z,-2.92
2018-01-15T19:30:36.253Z,-2.86
2018-01-15T19:33:04.135Z,-2.91
2018-01-15T19:38:33.545Z,-2.87
2018-01-15T19:41:01.321Z,-2.89
2018-01-15T19:43:33.557Z,-2.86
2018-01-15T19:46:06.751Z,-2.87
2018-01-15T19:48:39.780Z,-2.92
2018-01-15T19:51:13.249Z,-2.89
2018-01-15T19:53:46.435Z,-3.03
2018-01-15T19:56:19.647Z,-3.06
2018-01-15T19:58:52.607Z,-3.10
2018-01-15T20:01:25.721Z,-3.06
2018-01-15T20:07:01.095Z,-3.05
2018-01-15T20:12:33.690Z,-2.79
2018-01-15T20:15:01.306Z,-2.83
2018-01-15T20:17:28.866Z,-2.92
2018-01-15T20:19:56.502Z,-2.81
2018-01-15T20:22:24.327Z,-2.77
2018-01-15T20:24:51.891Z,-2.73
2018-01-15T20:27:19.503Z,-2.77
2018-01-15T20:29:47.154Z,-2.75
2018-01-15T20:32:14.786Z,-2.83
2018-01-15T20:34:42.398Z,-2.98
2018-01-15T20:37:09.983Z,-3.00
2018-01-15T20:39:37.910Z,-2.96
2018-01-15T20:42:05.514Z,-3.03
2018-01-15T20:44:33.087Z,-3.05
2018-01-15T20:47:00.671Z,-3.17
2018-01-15T20:49:28.303Z,-3.12
2018-01-15T20:51:55.874Z,-3.15
2018-01-15T20:54:23.455Z,-3.19
2018-01-15T20:56:51.188Z,-3.13
2018-01-15T20:59:18.788Z,-3.13
2018-01-15T21:01:46.361Z,-3.15
2018-01-15T21:04:14.180Z,-3.12
2018-01-15T21:06:41.853Z,-3.19
2018-01-15T21:09:09.428Z,-3.16
2018-01-15T21:11:37.147Z,-3.19
2018-01-15T21:14:05.043Z,-3.20
2018-01-15T21:16:32.607Z,-3.07
2018-01-15T21:19:00.213Z,-2.97
2018-01-15T21:21:27.804Z,-3.00
2018-01-15T21:23:55.525Z,-3.00
2018-01-15T21:26:23.135Z,-3.07
2018-01-15T21:28:50.807Z,-3.06
2018-01-15T21:31:18.423Z,-3.08
2018-01-15T21:33:46.047Z,-3.08
2018-01-15T21:36:13.608Z,-3.09
2018-01-15T21:38:41.278Z,-3.07
2018-01-15T21:41:08.888Z,-3.11
2018-01-15T21:43:36.470Z,-2.97
2018-01-15T21:46:04.039Z,-2.99
2018-01-15T21:48:31.655Z,-2.97
2018-01-15T21:50:59.233Z,-2.96
2018-01-15T21:53:26.811Z,-3.08
2018-01-15T21:55:54.464Z,-3.17
2018-01-15T21:58:22.119Z,-3.17
2018-01-15T22:00:49.704Z,-3.16
2018-01-15T22:03:17.344Z,-3.15
2018-01-15T22:05:45.120Z,-3.16
2018-01-15T22:08:12.687Z,-3.15
2018-01-15T22:10:40.448Z,-3.16
2018-01-15T22:13:08.032Z,-3.13
2018-01-15T22:15:35.755Z,-3.24
2018-01-15T22:18:03.453Z,-3.28
2018-01-15T22:20:31.105Z,-3.20
2018-01-15T22:22:58.752Z,-3.13
2018-01-15T22:25:26.334Z,-3.03
2018-01-15T22:27:53.914Z,-3.03
2018-01-15T22:30:21.468Z,-3.18
2018-01-15T22:32:49.174Z,-3.17
2018-01-15T22:35:16.766Z,-3.15
2018-01-15T22:37:44.330Z,-3.11
2018-01-15T22:40:11.935Z,-3.10
2018-01-15T22:42:39.651Z,-3.03
2018-01-15T22:45:07.248Z,-2.98
2018-01-15T22:47:34.872Z,-3.02
2018-01-15T22:50:02.639Z,-2.93
2018-01-15T22:52:30.290Z,-2.90
2018-01-15T22:54:57.964Z,-3.00
2018-01-15T22:57:25.520Z,-3.00
2018-01-15T22:59:53.091Z,-2.98
2018-01-15T23:02:20.700Z,-3.02
2018-01-15T23:04:48.398Z,-3.03
2018-01-15T23:07:16.000Z,-2.96
2018-01-15T23:09:43.612Z,-2.93
2018-01-15T23:12:11.375Z,-2.85
2018-01-15T23:14:39.056Z,-2.81
2018-01-15T23:17:06.663Z,-2.82
2018-01-15T23:19:34.242Z,-2.80
2018-01-15T23:22:01.815Z,-2.88
2018-01-15T23:24:29.407Z,-3.18
2018-01-15T23:26:57.162Z,-3.24
2018-01-15T23:29:24.804Z,-3.14
2018-01-15T23:31:52.423Z,-3.08
2018-01-15T23:34:19.986Z,-3.01
2018-01-15T23:36:47.570Z,-3.02
2018-01-15T23:39:15.209Z,-3.06
2018-01-15T23:41:42.796Z,-2.95
2018-01-15T23:44:10.591Z,-2.96
2018-01-15T23:46:38.196Z,-2.92
2018-01-15T23:49:05.790Z,-2.83
2018-01-15T23:51:33.355Z,-2.82
2018-01-15T23:54:00.969Z,-2.83
2018-01-15T23:56:29.000Z,-2.90
2018-01-15T23:58:56.776Z,-2.91
